sensor_id;sensor_type;location;lat;lon;timestamp;temperature;humidity
53410;DHT22;66590;50.734;4.246;2023-08-07T00:02:07;12.70;99.90
53410;DHT22;66590;50.734;4.246;2023-08-07T00:04:34;12.60;99.90
53410;DHT22;66590;50.734;4.246;2023-08-07T00:07:03;12.60;99.90
53410;DHT22;66590;50.734;4.246;2023-08-07T00:09:31;12.60;99.90
53410;DHT22;66590;50.734;4.246;2023-08-07T00:11:58;12.60;99.90
53410;DHT22;66590;50.734;4.246;2023-08-07T00:14:25;12.60;99.90
53410;DHT22;66590;50.734;4.246;2023-08-07T00:16:51;12.60;99.90
53410;DHT22;66590;50.734;4.246;2023-08-07T00:19:19;12.60;99.90
53410;DHT22;66590;50.734;4.246;2023-08-07T00:21:45;12.70;99.90
53410;DHT22;66590;50.734;4.246;2023-08-07T00:24:14;12.60;99.90
53410;DHT22;66590;50.734;4.246;2023-08-07T00:26:41;12.60;99.90
53410;DHT22;66590;50.734;4.246;2023-08-07T00:29:08;12.60;99.90
53410;DHT22;66590;50.734;4.246;2023-08-07T00:31:35;12.60;99.90
53410;DHT22;66590;50.734;4.246;2023-08-07T00:34:02;12.50;99.90
53410;DHT22;66590;50.734;4.246;2023-08-07T00:36:29;12.50;99.90
53410;DHT22;66590;50.734;4.246;2023-08-07T00:38:56;12.50;99.90
53410;DHT22;66590;50.734;4.246;2023-08-07T00:41:24;12.50;99.90
53410;DHT22;66590;50.734;4.246;2023-08-07T00:43:52;12.50;99.90
53410;DHT22;66590;50.734;4.246;2023-08-07T00:46:19;12.50;99.90
53410;DHT22;66590;50.734;4.246;2023-08-07T00:48:46;12.50;99.90
53410;DHT22;66590;50.734;4.246;2023-08-07T00:51:13;12.50;99.90
53410;DHT22;66590;50.734;4.246;2023-08-07T00:53:42;12.50;99.90
53410;DHT22;66590;50.734;4.246;2023-08-07T00:56:09;12.40;99.90
53410;DHT22;66590;50.734;4.246;2023-08-07T00:58:38;12.40;99.90
53410;DHT22;66590;50.734;4.246;2023-08-07T01:01:06;12.30;99.90
53410;DHT22;66590;50.734;4.246;2023-08-07T01:03:33;12.30;99.90
53410;DHT22;66590;50.734;4.246;2023-08-07T01:06:01;12.40;99.90
53410;DHT22;66590;50.734;4.246;2023-08-07T01:08:28;12.40;99.90
53410;DHT22;66590;50.734;4.246;2023-08-07T01:11:14;12.40;99.90
53410;DHT22;66590;50.734;4.246;2023-08-07T01:13:48;12.30;99.90
53410;DHT22;66590;50.734;4.246;2023-08-07T01:16:20;12.30;99.90
53410;DHT22;66590;50.734;4.246;2023-08-07T01:18:49;12.30;99.90
53410;DHT22;66590;50.734;4.246;2023-08-07T01:21:20;12.30;99.90
53410;DHT22;66590;50.734;4.246;2023-08-07T01:23:48;12.20;99.90
53410;DHT22;66590;50.734;4.246;2023-08-07T01:26:16;12.20;99.90
53410;DHT22;66590;50.734;4.246;2023-08-07T01:28:54;12.30;99.90
53410;DHT22;66590;50.734;4.246;2023-08-07T01:31:24;12.20;99.90
53410;DHT22;66590;50.734;4.246;2023-08-07T01:33:57;12.20;99.90
53410;DHT22;66590;50.734;4.246;2023-08-07T01:36:27;12.20;99.90
53410;DHT22;66590;50.734;4.246;2023-08-07T01:38:57;12.10;99.90
53410;DHT22;66590;50.734;4.246;2023-08-07T01:41:26;12.10;99.90
53410;DHT22;66590;50.734;4.246;2023-08-07T01:43:54;12.10;99.90
53410;DHT22;66590;50.734;4.246;2023-08-07T01:46:21;12.10;99.90
53410;DHT22;66590;50.734;4.246;2023-08-07T01:48:48;12.10;99.90
53410;DHT22;66590;50.734;4.246;2023-08-07T01:51:15;12.10;99.90
53410;DHT22;66590;50.734;4.246;2023-08-07T01:53:42;12.20;99.90
53410;DHT22;66590;50.734;4.246;2023-08-07T01:56:10;12.20;99.90
53410;DHT22;66590;50.734;4.246;2023-08-07T01:58:37;12.20;99.90
53410;DHT22;66590;50.734;4.246;2023-08-07T02:01:04;12.20;99.90
53410;DHT22;66590;50.734;4.246;2023-08-07T02:03:31;12.10;99.90
53410;DHT22;66590;50.734;4.246;2023-08-07T02:05:58;12.10;99.90
53410;DHT22;66590;50.734;4.246;2023-08-07T02:08:25;12.10;99.90
53410;DHT22;66590;50.734;4.246;2023-08-07T02:10:52;12.10;99.90
53410;DHT22;66590;50.734;4.246;2023-08-07T02:13:21;12.10;99.90
53410;DHT22;66590;50.734;4.246;2023-08-07T02:15:48;12.10;99.90
53410;DHT22;66590;50.734;4.246;2023-08-07T02:18:15;12.10;99.90
53410;DHT22;66590;50.734;4.246;2023-08-07T02:20:42;12.00;99.90
53410;DHT22;66590;50.734;4.246;2023-08-07T02:23:09;12.00;99.90
53410;DHT22;66590;50.734;4.246;2023-08-07T02:25:36;12.00;99.90
53410;DHT22;66590;50.734;4.246;2023-08-07T02:28:03;11.90;99.90
53410;DHT22;66590;50.734;4.246;2023-08-07T02:30:32;11.80;99.90
53410;DHT22;66590;50.734;4.246;2023-08-07T02:32:59;11.80;99.90
53410;DHT22;66590;50.734;4.246;2023-08-07T02:35:26;11.80;99.90
53410;DHT22;66590;50.734;4.246;2023-08-07T02:37:53;11.70;99.90
53410;DHT22;66590;50.734;4.246;2023-08-07T02:40:20;11.80;99.90
53410;DHT22;66590;50.734;4.246;2023-08-07T02:42:47;11.90;99.90
53410;DHT22;66590;50.734;4.246;2023-08-07T02:45:14;11.80;99.90
53410;DHT22;66590;50.734;4.246;2023-08-07T02:47:42;11.80;99.90
53410;DHT22;66590;50.734;4.246;2023-08-07T02:50:09;11.80;99.90
53410;DHT22;66590;50.734;4.246;2023-08-07T02:52:36;11.90;99.90
53410;DHT22;66590;50.734;4.246;2023-08-07T02:55:04;11.90;99.90
53410;DHT22;66590;50.734;4.246;2023-08-07T02:57:31;11.90;99.90
53410;DHT22;66590;50.734;4.246;2023-08-07T02:59:58;11.90;99.90
53410;DHT22;66590;50.734;4.246;2023-08-07T03:02:25;11.80;99.90
53410;DHT22;66590;50.734;4.246;2023-08-07T03:04:53;11.80;99.90
53410;DHT22;66590;50.734;4.246;2023-08-07T03:07:20;11.80;99.90
53410;DHT22;66590;50.734;4.246;2023-08-07T03:09:47;11.70;99.90
53410;DHT22;66590;50.734;4.246;2023-08-07T03:12:14;11.80;99.90
53410;DHT22;66590;50.734;4.246;2023-08-07T03:14:41;11.80;99.90
53410;DHT22;66590;50.734;4.246;2023-08-07T03:17:08;11.80;99.90
53410;DHT22;66590;50.734;4.246;2023-08-07T03:19:35;11.90;99.90
53410;DHT22;66590;50.734;4.246;2023-08-07T03:22:04;11.90;99.90
53410;DHT22;66590;50.734;4.246;2023-08-07T03:24:31;12.00;99.90
53410;DHT22;66590;50.734;4.246;2023-08-07T03:26:58;12.10;99.90
53410;DHT22;66590;50.734;4.246;2023-08-07T03:29:25;12.20;99.90
53410;DHT22;66590;50.734;4.246;2023-08-07T03:31:52;12.20;99.90
53410;DHT22;66590;50.734;4.246;2023-08-07T03:34:19;12.20;99.90
53410;DHT22;66590;50.734;4.246;2023-08-07T03:36:46;12.10;99.90
53410;DHT22;66590;50.734;4.246;2023-08-07T03:39:14;12.20;99.90
53410;DHT22;66590;50.734;4.246;2023-08-07T03:41:41;12.10;99.90
53410;DHT22;66590;50.734;4.246;2023-08-07T03:44:08;12.10;99.90
53410;DHT22;66590;50.734;4.246;2023-08-07T03:46:36;12.10;99.90
53410;DHT22;66590;50.734;4.246;2023-08-07T03:49:03;12.00;99.90
53410;DHT22;66590;50.734;4.246;2023-08-07T03:51:29;12.00;99.90
53410;DHT22;66590;50.734;4.246;2023-08-07T03:53:56;11.80;99.90
53410;DHT22;66590;50.734;4.246;2023-08-07T03:56:25;11.80;99.90
53410;DHT22;66590;50.734;4.246;2023-08-07T03:58:52;11.80;99.90
53410;DHT22;66590;50.734;4.246;2023-08-07T04:01:19;11.60;99.90
53410;DHT22;66590;50.734;4.246;2023-08-07T04:03:47;11.60;99.90
53410;DHT22;66590;50.734;4.246;2023-08-07T04:06:14;11.70;99.90
53410;DHT22;66590;50.734;4.246;2023-08-07T04:08:41;11.70;99.90
53410;DHT22;66590;50.734;4.246;2023-08-07T04:11:08;11.70;99.90
53410;DHT22;66590;50.734;4.246;2023-08-07T04:13:36;11.80;99.90
53410;DHT22;66590;50.734;4.246;2023-08-07T04:16:04;11.70;99.90
53410;DHT22;66590;50.734;4.246;2023-08-07T04:18:31;11.80;99.90
53410;DHT22;66590;50.734;4.246;2023-08-07T04:20:59;11.80;99.90
53410;DHT22;66590;50.734;4.246;2023-08-07T04:23:26;11.80;99.90
53410;DHT22;66590;50.734;4.246;2023-08-07T04:25:53;11.80;99.90
53410;DHT22;66590;50.734;4.246;2023-08-07T04:28:21;11.80;99.90
53410;DHT22;66590;50.734;4.246;2023-08-07T04:30:51;11.90;99.90
53410;DHT22;66590;50.734;4.246;2023-08-07T04:33:18;11.90;99.90
53410;DHT22;66590;50.734;4.246;2023-08-07T04:35:46;11.90;99.90
53410;DHT22;66590;50.734;4.246;2023-08-07T04:38:13;11.90;99.90
53410;DHT22;66590;50.734;4.246;2023-08-07T04:40:44;11.90;99.90
53410;DHT22;66590;50.734;4.246;2023-08-07T04:43:10;12.00;99.90
53410;DHT22;66590;50.734;4.246;2023-08-07T04:45:37;12.00;99.90
53410;DHT22;66590;50.734;4.246;2023-08-07T04:48:07;12.00;99.90
53410;DHT22;66590;50.734;4.246;2023-08-07T04:50:34;12.00;99.90
53410;DHT22;66590;50.734;4.246;2023-08-07T04:53:01;12.00;99.90
53410;DHT22;66590;50.734;4.246;2023-08-07T04:55:28;12.10;99.90
53410;DHT22;66590;50.734;4.246;2023-08-07T04:57:55;12.10;99.90
53410;DHT22;66590;50.734;4.246;2023-08-07T05:00:23;12.10;99.90
53410;DHT22;66590;50.734;4.246;2023-08-07T05:02:50;12.10;99.90
53410;DHT22;66590;50.734;4.246;2023-08-07T05:05:18;12.20;99.90
53410;DHT22;66590;50.734;4.246;2023-08-07T05:07:45;12.20;99.90
53410;DHT22;66590;50.734;4.246;2023-08-07T05:10:12;12.20;99.90
53410;DHT22;66590;50.734;4.246;2023-08-07T05:12:39;12.10;99.90
53410;DHT22;66590;50.734;4.246;2023-08-07T05:15:07;12.10;99.90
53410;DHT22;66590;50.734;4.246;2023-08-07T05:17:34;12.10;99.90
53410;DHT22;66590;50.734;4.246;2023-08-07T05:20:01;12.20;99.90
53410;DHT22;66590;50.734;4.246;2023-08-07T05:22:29;12.20;99.90
53410;DHT22;66590;50.734;4.246;2023-08-07T05:24:56;12.30;99.90
53410;DHT22;66590;50.734;4.246;2023-08-07T05:27:23;12.30;99.90
53410;DHT22;66590;50.734;4.246;2023-08-07T05:29:50;12.30;99.90
53410;DHT22;66590;50.734;4.246;2023-08-07T05:32:18;12.40;99.90
53410;DHT22;66590;50.734;4.246;2023-08-07T05:34:44;12.30;99.90
53410;DHT22;66590;50.734;4.246;2023-08-07T05:37:11;12.40;99.90
53410;DHT22;66590;50.734;4.246;2023-08-07T05:39:40;12.40;99.90
53410;DHT22;66590;50.734;4.246;2023-08-07T05:42:07;12.40;99.90
53410;DHT22;66590;50.734;4.246;2023-08-07T05:44:34;12.50;99.90
53410;DHT22;66590;50.734;4.246;2023-08-07T05:47:02;12.50;99.90
53410;DHT22;66590;50.734;4.246;2023-08-07T05:49:29;12.60;99.90
53410;DHT22;66590;50.734;4.246;2023-08-07T05:51:56;12.70;99.90
53410;DHT22;66590;50.734;4.246;2023-08-07T05:54:23;12.70;99.90
53410;DHT22;66590;50.734;4.246;2023-08-07T05:56:52;12.70;99.90
53410;DHT22;66590;50.734;4.246;2023-08-07T05:59:19;12.80;99.90
53410;DHT22;66590;50.734;4.246;2023-08-07T06:01:46;12.90;99.90
53410;DHT22;66590;50.734;4.246;2023-08-07T06:04:13;12.90;99.90
53410;DHT22;66590;50.734;4.246;2023-08-07T06:06:40;13.00;99.90
53410;DHT22;66590;50.734;4.246;2023-08-07T06:09:07;13.00;99.90
53410;DHT22;66590;50.734;4.246;2023-08-07T06:11:35;13.10;99.90
53410;DHT22;66590;50.734;4.246;2023-08-07T06:14:03;13.10;99.90
53410;DHT22;66590;50.734;4.246;2023-08-07T06:16:30;13.20;99.90
53410;DHT22;66590;50.734;4.246;2023-08-07T06:18:57;13.40;99.90
53410;DHT22;66590;50.734;4.246;2023-08-07T06:21:24;13.40;99.90
53410;DHT22;66590;50.734;4.246;2023-08-07T06:23:51;13.50;99.90
53410;DHT22;66590;50.734;4.246;2023-08-07T06:26:18;13.70;99.90
53410;DHT22;66590;50.734;4.246;2023-08-07T06:28:45;14.00;99.90
53410;DHT22;66590;50.734;4.246;2023-08-07T06:31:16;14.40;99.90
53410;DHT22;66590;50.734;4.246;2023-08-07T06:33:43;14.80;99.90
53410;DHT22;66590;50.734;4.246;2023-08-07T06:36:10;15.30;99.90
53410;DHT22;66590;50.734;4.246;2023-08-07T06:38:37;15.80;99.90
53410;DHT22;66590;50.734;4.246;2023-08-07T06:41:04;16.00;99.90
53410;DHT22;66590;50.734;4.246;2023-08-07T06:43:31;16.60;99.90
53410;DHT22;66590;50.734;4.246;2023-08-07T06:45:59;16.80;99.90
53410;DHT22;66590;50.734;4.246;2023-08-07T06:48:27;16.70;99.90
53410;DHT22;66590;50.734;4.246;2023-08-07T06:50:54;17.40;99.90
53410;DHT22;66590;50.734;4.246;2023-08-07T06:53:21;17.10;99.90
53410;DHT22;66590;50.734;4.246;2023-08-07T06:55:48;16.90;99.90
53410;DHT22;66590;50.734;4.246;2023-08-07T06:58:15;17.00;99.90
53410;DHT22;66590;50.734;4.246;2023-08-07T07:00:42;17.30;99.90
53410;DHT22;66590;50.734;4.246;2023-08-07T07:03:09;16.80;99.90
53410;DHT22;66590;50.734;4.246;2023-08-07T07:05:37;17.00;99.90
53410;DHT22;66590;50.734;4.246;2023-08-07T07:08:04;17.40;99.90
53410;DHT22;66590;50.734;4.246;2023-08-07T07:10:31;17.40;99.90
53410;DHT22;66590;50.734;4.246;2023-08-07T07:12:58;18.00;99.90
53410;DHT22;66590;50.734;4.246;2023-08-07T07:15:25;18.30;99.90
53410;DHT22;66590;50.734;4.246;2023-08-07T07:17:52;18.30;99.90
53410;DHT22;66590;50.734;4.246;2023-08-07T07:20:19;18.30;99.90
53410;DHT22;66590;50.734;4.246;2023-08-07T07:22:48;17.70;99.90
53410;DHT22;66590;50.734;4.246;2023-08-07T07:25:15;17.60;99.90
53410;DHT22;66590;50.734;4.246;2023-08-07T07:27:42;17.50;99.90
53410;DHT22;66590;50.734;4.246;2023-08-07T07:30:09;17.50;99.90
53410;DHT22;66590;50.734;4.246;2023-08-07T07:32:37;17.80;99.90
53410;DHT22;66590;50.734;4.246;2023-08-07T07:35:04;18.00;99.90
53410;DHT22;66590;50.734;4.246;2023-08-07T07:37:31;18.10;99.90
53410;DHT22;66590;50.734;4.246;2023-08-07T07:40:00;18.00;99.90
53410;DHT22;66590;50.734;4.246;2023-08-07T07:42:27;17.80;99.90
53410;DHT22;66590;50.734;4.246;2023-08-07T07:44:54;17.90;99.90
53410;DHT22;66590;50.734;4.246;2023-08-07T07:47:21;18.00;99.90
53410;DHT22;66590;50.734;4.246;2023-08-07T07:49:48;17.60;99.90
53410;DHT22;66590;50.734;4.246;2023-08-07T07:52:15;17.60;99.90
53410;DHT22;66590;50.734;4.246;2023-08-07T07:54:42;17.90;99.90
53410;DHT22;66590;50.734;4.246;2023-08-07T07:57:10;18.20;99.90
53410;DHT22;66590;50.734;4.246;2023-08-07T07:59:37;18.40;99.90
53410;DHT22;66590;50.734;4.246;2023-08-07T08:02:05;18.70;99.90
53410;DHT22;66590;50.734;4.246;2023-08-07T08:04:32;18.70;99.90
53410;DHT22;66590;50.734;4.246;2023-08-07T08:06:59;18.40;99.90
53410;DHT22;66590;50.734;4.246;2023-08-07T08:09:26;18.20;99.90
53410;DHT22;66590;50.734;4.246;2023-08-07T08:11:53;18.20;99.90
53410;DHT22;66590;50.734;4.246;2023-08-07T08:14:21;17.80;99.90
53410;DHT22;66590;50.734;4.246;2023-08-07T08:16:48;17.80;99.90
53410;DHT22;66590;50.734;4.246;2023-08-07T08:19:15;18.20;99.90
53410;DHT22;66590;50.734;4.246;2023-08-07T08:21:42;18.50;99.90
53410;DHT22;66590;50.734;4.246;2023-08-07T08:24:10;18.60;99.90
53410;DHT22;66590;50.734;4.246;2023-08-07T08:26:37;18.80;99.90
53410;DHT22;66590;50.734;4.246;2023-08-07T08:29:05;18.30;99.90
53410;DHT22;66590;50.734;4.246;2023-08-07T08:31:34;18.70;99.90
53410;DHT22;66590;50.734;4.246;2023-08-07T08:34:01;18.90;99.90
53410;DHT22;66590;50.734;4.246;2023-08-07T08:36:28;19.20;99.90
53410;DHT22;66590;50.734;4.246;2023-08-07T08:38:55;19.40;99.90
53410;DHT22;66590;50.734;4.246;2023-08-07T08:41:22;19.20;99.90
53410;DHT22;66590;50.734;4.246;2023-08-07T08:43:51;18.50;99.90
53410;DHT22;66590;50.734;4.246;2023-08-07T08:46:19;18.70;99.90
53410;DHT22;66590;50.734;4.246;2023-08-07T08:48:51;19.10;99.90
53410;DHT22;66590;50.734;4.246;2023-08-07T08:51:21;19.00;99.90
53410;DHT22;66590;50.734;4.246;2023-08-07T08:53:50;18.40;99.90
53410;DHT22;66590;50.734;4.246;2023-08-07T08:56:18;18.40;99.90
53410;DHT22;66590;50.734;4.246;2023-08-07T08:58:45;18.60;99.90
53410;DHT22;66590;50.734;4.246;2023-08-07T09:01:13;18.50;99.90
53410;DHT22;66590;50.734;4.246;2023-08-07T09:03:40;18.00;99.90
53410;DHT22;66590;50.734;4.246;2023-08-07T09:06:08;18.20;99.90
53410;DHT22;66590;50.734;4.246;2023-08-07T09:08:37;18.40;99.90
53410;DHT22;66590;50.734;4.246;2023-08-07T09:11:05;18.20;99.90
53410;DHT22;66590;50.734;4.246;2023-08-07T09:13:33;18.10;99.90
53410;DHT22;66590;50.734;4.246;2023-08-07T09:16:03;18.20;99.90
53410;DHT22;66590;50.734;4.246;2023-08-07T09:18:31;18.40;99.90
53410;DHT22;66590;50.734;4.246;2023-08-07T09:20:59;18.90;99.90
53410;DHT22;66590;50.734;4.246;2023-08-07T09:23:27;18.60;99.90
53410;DHT22;66590;50.734;4.246;2023-08-07T09:26:02;18.30;99.90
53410;DHT22;66590;50.734;4.246;2023-08-07T09:28:29;18.20;99.90
53410;DHT22;66590;50.734;4.246;2023-08-07T09:30:56;18.40;99.90
53410;DHT22;66590;50.734;4.246;2023-08-07T09:33:25;18.50;99.90
53410;DHT22;66590;50.734;4.246;2023-08-07T09:35:53;18.80;99.90
53410;DHT22;66590;50.734;4.246;2023-08-07T09:38:23;18.80;99.90
53410;DHT22;66590;50.734;4.246;2023-08-07T09:40:52;18.90;99.90
53410;DHT22;66590;50.734;4.246;2023-08-07T09:43:22;18.80;99.90
53410;DHT22;66590;50.734;4.246;2023-08-07T09:45:49;18.10;99.90
53410;DHT22;66590;50.734;4.246;2023-08-07T09:48:24;17.80;99.90
53410;DHT22;66590;50.734;4.246;2023-08-07T09:50:51;17.70;99.90
53410;DHT22;66590;50.734;4.246;2023-08-07T09:53:25;17.50;99.90
53410;DHT22;66590;50.734;4.246;2023-08-07T09:55:53;17.60;99.90
53410;DHT22;66590;50.734;4.246;2023-08-07T09:58:21;18.00;99.90
53410;DHT22;66590;50.734;4.246;2023-08-07T10:00:48;18.60;99.90
53410;DHT22;66590;50.734;4.246;2023-08-07T10:03:16;18.90;99.90
53410;DHT22;66590;50.734;4.246;2023-08-07T10:05:43;19.50;99.90
53410;DHT22;66590;50.734;4.246;2023-08-07T10:08:11;19.60;99.90
53410;DHT22;66590;50.734;4.246;2023-08-07T10:10:39;19.70;99.90
53410;DHT22;66590;50.734;4.246;2023-08-07T10:13:07;19.20;99.90
53410;DHT22;66590;50.734;4.246;2023-08-07T10:15:35;19.10;99.90
53410;DHT22;66590;50.734;4.246;2023-08-07T10:18:02;18.70;99.90
53410;DHT22;66590;50.734;4.246;2023-08-07T10:20:29;18.80;99.90
53410;DHT22;66590;50.734;4.246;2023-08-07T10:23:00;19.00;99.90
53410;DHT22;66590;50.734;4.246;2023-08-07T10:25:29;19.40;99.90
53410;DHT22;66590;50.734;4.246;2023-08-07T10:27:57;19.70;99.90
53410;DHT22;66590;50.734;4.246;2023-08-07T10:30:26;19.60;99.90
53410;DHT22;66590;50.734;4.246;2023-08-07T10:32:55;19.40;99.90
53410;DHT22;66590;50.734;4.246;2023-08-07T10:35:24;19.20;99.90
53410;DHT22;66590;50.734;4.246;2023-08-07T10:37:51;19.60;99.90
53410;DHT22;66590;50.734;4.246;2023-08-07T10:40:19;20.00;99.90
53410;DHT22;66590;50.734;4.246;2023-08-07T10:42:55;19.80;99.90
53410;DHT22;66590;50.734;4.246;2023-08-07T10:45:23;19.10;99.90
53410;DHT22;66590;50.734;4.246;2023-08-07T10:48:17;19.80;99.90
53410;DHT22;66590;50.734;4.246;2023-08-07T10:50:56;20.30;99.90
53410;DHT22;66590;50.734;4.246;2023-08-07T10:53:29;20.90;99.90
53410;DHT22;66590;50.734;4.246;2023-08-07T10:55:56;20.90;99.90
53410;DHT22;66590;50.734;4.246;2023-08-07T10:58:24;20.40;99.90
53410;DHT22;66590;50.734;4.246;2023-08-07T11:03:36;20.00;99.90
53410;DHT22;66590;50.734;4.246;2023-08-07T11:06:03;20.20;99.90
53410;DHT22;66590;50.734;4.246;2023-08-07T11:08:30;20.40;99.90
53410;DHT22;66590;50.734;4.246;2023-08-07T11:11:03;20.50;99.90
53410;DHT22;66590;50.734;4.246;2023-08-07T11:13:30;20.60;99.90
53410;DHT22;66590;50.734;4.246;2023-08-07T11:15:58;21.10;99.90
53410;DHT22;66590;50.734;4.246;2023-08-07T11:18:25;21.00;99.90
53410;DHT22;66590;50.734;4.246;2023-08-07T11:20:54;21.70;99.90
53410;DHT22;66590;50.734;4.246;2023-08-07T11:23:23;21.90;99.90
53410;DHT22;66590;50.734;4.246;2023-08-07T11:25:50;21.80;99.90
53410;DHT22;66590;50.734;4.246;2023-08-07T11:28:18;22.00;99.90
53410;DHT22;66590;50.734;4.246;2023-08-07T11:30:46;22.10;99.90
53410;DHT22;66590;50.734;4.246;2023-08-07T11:33:14;21.40;99.90
53410;DHT22;66590;50.734;4.246;2023-08-07T11:35:42;21.30;99.90
53410;DHT22;66590;50.734;4.246;2023-08-07T11:38:11;21.60;99.90
53410;DHT22;66590;50.734;4.246;2023-08-07T11:40:38;21.40;99.90
53410;DHT22;66590;50.734;4.246;2023-08-07T11:43:05;21.30;99.90
53410;DHT22;66590;50.734;4.246;2023-08-07T11:45:32;21.00;99.90
53410;DHT22;66590;50.734;4.246;2023-08-07T11:47:59;21.00;99.90
53410;DHT22;66590;50.734;4.246;2023-08-07T11:50:27;21.40;99.90
53410;DHT22;66590;50.734;4.246;2023-08-07T11:52:54;21.50;99.90
53410;DHT22;66590;50.734;4.246;2023-08-07T11:55:23;21.50;99.90
53410;DHT22;66590;50.734;4.246;2023-08-07T11:57:50;21.30;99.90
53410;DHT22;66590;50.734;4.246;2023-08-07T12:00:17;21.20;99.90
53410;DHT22;66590;50.734;4.246;2023-08-07T12:02:44;20.80;99.90
53410;DHT22;66590;50.734;4.246;2023-08-07T12:05:11;20.70;99.90
53410;DHT22;66590;50.734;4.246;2023-08-07T12:07:38;20.80;99.90
53410;DHT22;66590;50.734;4.246;2023-08-07T12:10:07;21.00;99.90
53410;DHT22;66590;50.734;4.246;2023-08-07T12:12:36;21.30;99.90
53410;DHT22;66590;50.734;4.246;2023-08-07T12:15:06;21.40;99.90
53410;DHT22;66590;50.734;4.246;2023-08-07T12:17:33;21.30;99.90
53410;DHT22;66590;50.734;4.246;2023-08-07T12:20:00;21.30;99.90
53410;DHT22;66590;50.734;4.246;2023-08-07T12:22:27;21.10;99.90
53410;DHT22;66590;50.734;4.246;2023-08-07T12:24:54;20.80;99.90
53410;DHT22;66590;50.734;4.246;2023-08-07T12:27:21;20.40;99.90
53410;DHT22;66590;50.734;4.246;2023-08-07T12:29:49;20.00;99.90
53410;DHT22;66590;50.734;4.246;2023-08-07T12:32:17;19.80;99.90
53410;DHT22;66590;50.734;4.246;2023-08-07T12:34:43;19.70;99.90
53410;DHT22;66590;50.734;4.246;2023-08-07T12:37:15;19.70;99.90
53410;DHT22;66590;50.734;4.246;2023-08-07T12:39:42;19.70;99.90
53410;DHT22;66590;50.734;4.246;2023-08-07T12:42:12;19.80;99.90
53410;DHT22;66590;50.734;4.246;2023-08-07T12:44:41;19.70;99.90
53410;DHT22;66590;50.734;4.246;2023-08-07T12:47:10;19.50;99.90
53410;DHT22;66590;50.734;4.246;2023-08-07T12:49:37;19.40;99.90
53410;DHT22;66590;50.734;4.246;2023-08-07T12:52:04;19.70;99.90
53410;DHT22;66590;50.734;4.246;2023-08-07T12:54:31;20.50;99.90
53410;DHT22;66590;50.734;4.246;2023-08-07T12:56:59;21.00;99.90
53410;DHT22;66590;50.734;4.246;2023-08-07T12:59:26;20.90;99.90
53410;DHT22;66590;50.734;4.246;2023-08-07T13:01:53;20.50;99.90
53410;DHT22;66590;50.734;4.246;2023-08-07T13:04:21;20.60;99.90
53410;DHT22;66590;50.734;4.246;2023-08-07T13:06:49;20.60;99.90
53410;DHT22;66590;50.734;4.246;2023-08-07T13:09:16;20.20;99.90
53410;DHT22;66590;50.734;4.246;2023-08-07T13:11:43;20.10;99.90
53410;DHT22;66590;50.734;4.246;2023-08-07T13:14:10;20.10;99.90
53410;DHT22;66590;50.734;4.246;2023-08-07T13:16:37;19.70;99.90
53410;DHT22;66590;50.734;4.246;2023-08-07T13:19:05;19.80;99.90
53410;DHT22;66590;50.734;4.246;2023-08-07T13:21:34;20.00;99.90
53410;DHT22;66590;50.734;4.246;2023-08-07T13:24:01;20.50;99.90
53410;DHT22;66590;50.734;4.246;2023-08-07T13:26:28;20.90;99.90
53410;DHT22;66590;50.734;4.246;2023-08-07T13:28:55;20.90;99.90
53410;DHT22;66590;50.734;4.246;2023-08-07T13:31:22;20.70;99.90
53410;DHT22;66590;50.734;4.246;2023-08-07T13:33:49;20.80;99.90
53410;DHT22;66590;50.734;4.246;2023-08-07T13:36:16;20.40;99.90
53410;DHT22;66590;50.734;4.246;2023-08-07T13:38:44;20.20;99.90
53410;DHT22;66590;50.734;4.246;2023-08-07T13:41:13;20.10;99.90
53410;DHT22;66590;50.734;4.246;2023-08-07T13:43:40;20.10;99.90
53410;DHT22;66590;50.734;4.246;2023-08-07T13:46:08;20.40;99.90
53410;DHT22;66590;50.734;4.246;2023-08-07T13:48:35;20.80;99.90
53410;DHT22;66590;50.734;4.246;2023-08-07T13:51:02;21.10;99.90
53410;DHT22;66590;50.734;4.246;2023-08-07T13:53:29;21.10;99.90
53410;DHT22;66590;50.734;4.246;2023-08-07T13:55:57;21.20;99.90
53410;DHT22;66590;50.734;4.246;2023-08-07T13:58:24;21.20;99.90
53410;DHT22;66590;50.734;4.246;2023-08-07T14:00:51;21.20;99.90
53410;DHT22;66590;50.734;4.246;2023-08-07T14:03:19;21.20;99.90
53410;DHT22;66590;50.734;4.246;2023-08-07T14:05:47;21.10;99.90
53410;DHT22;66590;50.734;4.246;2023-08-07T14:08:14;20.80;99.90
53410;DHT22;66590;50.734;4.246;2023-08-07T14:10:41;20.70;99.90
53410;DHT22;66590;50.734;4.246;2023-08-07T14:13:10;21.10;99.90
53410;DHT22;66590;50.734;4.246;2023-08-07T14:15:37;21.50;99.90
53410;DHT22;66590;50.734;4.246;2023-08-07T14:18:04;21.40;99.90
53410;DHT22;66590;50.734;4.246;2023-08-07T14:20:31;21.40;99.90
53410;DHT22;66590;50.734;4.246;2023-08-07T14:23:07;21.40;99.90
53410;DHT22;66590;50.734;4.246;2023-08-07T14:25:47;21.40;99.90
53410;DHT22;66590;50.734;4.246;2023-08-07T14:28:16;21.00;99.90
53410;DHT22;66590;50.734;4.246;2023-08-07T14:30:43;20.90;99.90
53410;DHT22;66590;50.734;4.246;2023-08-07T14:33:10;21.00;99.90
53410;DHT22;66590;50.734;4.246;2023-08-07T14:35:37;20.80;99.90
53410;DHT22;66590;50.734;4.246;2023-08-07T14:38:04;20.70;99.90
53410;DHT22;66590;50.734;4.246;2023-08-07T14:40:31;20.90;99.90
53410;DHT22;66590;50.734;4.246;2023-08-07T14:42:58;20.70;99.90
53410;DHT22;66590;50.734;4.246;2023-08-07T14:45:27;20.70;99.90
53410;DHT22;66590;50.734;4.246;2023-08-07T14:47:54;20.90;99.90
53410;DHT22;66590;50.734;4.246;2023-08-07T14:50:21;21.50;99.90
53410;DHT22;66590;50.734;4.246;2023-08-07T14:52:48;22.00;99.90
53410;DHT22;66590;50.734;4.246;2023-08-07T14:55:15;21.70;99.90
53410;DHT22;66590;50.734;4.246;2023-08-07T14:57:42;21.20;99.90
53410;DHT22;66590;50.734;4.246;2023-08-07T15:00:10;21.30;99.90
53410;DHT22;66590;50.734;4.246;2023-08-07T15:02:39;21.30;99.90
53410;DHT22;66590;50.734;4.246;2023-08-07T15:05:07;21.30;99.90
53410;DHT22;66590;50.734;4.246;2023-08-07T15:07:34;21.20;99.90
53410;DHT22;66590;50.734;4.246;2023-08-07T15:10:01;21.10;99.90
53410;DHT22;66590;50.734;4.246;2023-08-07T15:12:28;21.10;99.90
53410;DHT22;66590;50.734;4.246;2023-08-07T15:14:56;21.20;99.90
53410;DHT22;66590;50.734;4.246;2023-08-07T15:17:23;21.30;99.90
53410;DHT22;66590;50.734;4.246;2023-08-07T15:19:51;21.40;99.90
53410;DHT22;66590;50.734;4.246;2023-08-07T15:22:18;20.90;99.90
53410;DHT22;66590;50.734;4.246;2023-08-07T15:24:46;20.60;99.90
53410;DHT22;66590;50.734;4.246;2023-08-07T15:27:14;20.40;99.90
53410;DHT22;66590;50.734;4.246;2023-08-07T15:29:44;20.80;99.90
53410;DHT22;66590;50.734;4.246;2023-08-07T15:32:11;20.90;99.90
53410;DHT22;66590;50.734;4.246;2023-08-07T15:34:38;20.80;99.90
53410;DHT22;66590;50.734;4.246;2023-08-07T15:37:07;20.90;99.90